サンホセ/フアン・サンタ・マリア の空港の天気 - METARとTAF

フアン・サンタ・マリア国際空港 ( MROC / SJO ) - コスタリカ サンホセ
飛行場実況気象(Metar)
観測時間04/21 11:00 CST (04/21 17:00 UTC)
風向・風速東 8m/s 瞬間風速13m/s
視程10km以上
天気現象
なし
気温29℃
湿度40%
気圧1018hPa
METARMROC 211700Z 10015G26KT 070V140 CAVOK 29/14 A3007 NOSIG
過去の天気等 Google飛行場航空写真 Wunderground天気予報

過去48時間のMETAR

飛行場予報(TAF)
発表時間: 4/21 05:00 CST (4/21 11:00 UTC)
予報対象時間: 21日6時 CST ~ 22日6時 CST
風向・風速東 7m/s
視程10km以上
少しの雲 雲底高度 1070m
MROC 211100Z 2112/2212 09014KT 9999 FEW035 TX21/2119Z TN20/2210Z